East Blacksea — T2ZH3 — position and weather

sailwx.info

Track history (hours):
 
Tides and Currents Weather Stations Pressure Air Temp Water Temp Dewpoint Dewpoint Depression Visibility Wind Speed Wind Dir Waves Ship Positions

East Blacksea

Last reported at 2014-Jul-20 20:32 UTC. Time now 2014-Jul-22 21:39 UTC.
Position N 34°41' E 010°49'.

Length 69 m; draft 2.2 m.

Type: Cargo ship. MMSI: 572341210.

Date/timePositionNaut miles runAvg speedWind from/ knotsBaromVisibWave heightAir tempDewpointWater temp
2014-Jul-20 20:32N 34°41' E 010°49'0 0.0
2014-Jul-20 18:29N 34°41' E 010°49'5 0.2
2014-Jul-19 17:04N 34°36' E 010°50'5 9.6
2014-Jul-19 16:33N 34°32' E 010°50'8 7.6
2014-Jul-19 15:29N 34°27' E 010°58'9 9.3
2014-Jul-19 14:33N 34°30' E 011°08'118 8.9
2014-Jul-19 01:23N 35°31' E 013°11'8 9.2
2014-Jul-19 00:33N 35°36' E 013°17'9 9.1
2014-Jul-18 23:33N 35°43' E 013°25'9 9.4
2014-Jul-18 22:33N 35°50' E 013°32'9 9.0
2014-Jul-18 21:33N 35°56' E 013°40'9 8.8
2014-Jul-18 20:32N 36°03' E 013°47'10 8.6
2014-Jul-18 19:26N 36°10' E 013°55'8 8.8
2014-Jul-18 18:33N 36°15' E 014°03'9 8.9
2014-Jul-18 17:31N 36°20' E 014°12'8 8.7
2014-Jul-18 16:33N 36°25' E 014°20'9 8.7
2014-Jul-18 15:33N 36°30' E 014°29'9 8.7
2014-Jul-18 14:33N 36°35' E 014°38'  
2014-Jul-14 17:33N 36°46' E 023°29'8 7.9
2014-Jul-14 16:33N 36°53' E 023°35'212 8.4
2014-Jul-13 15:22N 39°55' E 025°54'  
Track history (hours):
 
Tides and Currents Weather Stations Pressure Air Temp Water Temp Dewpoint Dewpoint Depression Visibility Wind Speed Wind Dir Waves Ship Positions

East Blacksea

Last reported at 2014-Jul-20 20:32 UTC. Time now 2014-Jul-22 21:39 UTC.
Position N 34°41' E 010°49'.

Length 69 m; draft 2.2 m.

Type: Cargo ship. MMSI: 572341210.

Date/timePositionNaut miles runAvg speedWind from/ knotsBaromVisibWave heightAir tempDewpointWater temp
2014-Jul-20 20:32N 34°41' E 010°49'0 0.0
2014-Jul-20 18:29N 34°41' E 010°49'5 0.2
2014-Jul-19 17:04N 34°36' E 010°50'5 9.6
2014-Jul-19 16:33N 34°32' E 010°50'8 7.6
2014-Jul-19 15:29N 34°27' E 010°58'9 9.3
2014-Jul-19 14:33N 34°30' E 011°08'118 8.9
2014-Jul-19 01:23N 35°31' E 013°11'8 9.2
2014-Jul-19 00:33N 35°36' E 013°17'9 9.1
2014-Jul-18 23:33N 35°43' E 013°25'9 9.4
2014-Jul-18 22:33N 35°50' E 013°32'9 9.0
2014-Jul-18 21:33N 35°56' E 013°40'9 8.8
2014-Jul-18 20:32N 36°03' E 013°47'10 8.6
2014-Jul-18 19:26N 36°10' E 013°55'8 8.8
2014-Jul-18 18:33N 36°15' E 014°03'9 8.9
2014-Jul-18 17:31N 36°20' E 014°12'8 8.7
2014-Jul-18 16:33N 36°25' E 014°20'9 8.7
2014-Jul-18 15:33N 36°30' E 014°29'9 8.7
2014-Jul-18 14:33N 36°35' E 014°38'  
2014-Jul-14 17:33N 36°46' E 023°29'8 7.9
2014-Jul-14 16:33N 36°53' E 023°35'212 8.4
2014-Jul-13 15:22N 39°55' E 025°54'  

Dump ship's entire track history